ETAR

Ramstein Air Base Airport

Ramstein, Germany
METAR ETAR 241056Z AUTO 34005KT 9999 FEW045 14/07 A3053 RMK AO2 SLP344 T01410069 $
Observed Flight Rules
Sep-24 @ 10:56 UTC (46 minutes ago) Visual Flight Rules
Wind Visibility Clouds
340° at 5 knots 10,000+ meters
  • Few at 4,500' AGL
Temperatures Readings
Current 14°C / 57°F
Dewpoint 7°C / 45°F
Humidity 63%
Altimeter 30.53" Hg
Pressure 1034.4 hPa
Elevation 238
METAR ETAR 241056Z AUTO 34005KT 9999 FEW045 14/07 A3053 RMK AO2 SLP344 T01410069 $
Observed Flight Rules
Sep-24 @ 10:56 UTC
(46 minutes ago)
VFR
Wind Visibility
340° at 5 knots 10,000+ meters
Clouds
  • Few at 4,500' AGL
Temperature Dewpoint
14°C / 57°F 7°C / 45°F
Humidity Altimeter Pressure
63% 30.53" Hg 1034.4 hPa